Time;durP1;ratioP1;P1;durP2;ratioP2;P2;SDS_P1;SDS_P2;PMS_P1;PMS_P2;Temp;Humidity;BMP_temperature;BMP_pressure;BME280_temperature;BME280_humidity;BME280_pressure;Samples;Min_cycle;Max_cycle;Signal;HPM_P1;HPM_P2
2022/10/11 16:27:53;;;;;;;6.77;2.20;;;15.30;97.20;;;;;;5100498;28;20508;-69
2022/10/11 16:30:20;;;;;;;6.77;3.50;;;15.20;98.80;;;;;;5099880;28;20453;-69
2022/10/11 16:32:47;;;;;;;9.73;3.40;;;15.10;99.90;;;;;;5098915;28;20453;-69
2022/10/11 16:35:16;;;;;;;8.13;2.87;;;15.10;99.90;;;;;;5099117;28;20971;-69
2022/10/11 16:37:43;;;;;;;8.60;3.17;;;15.00;99.90;;;;;;5097879;28;20463;-69
2022/10/11 16:40:11;;;;;;;4.70;2.60;;;14.90;99.90;;;;;;5095599;28;20540;-73
2022/10/11 16:42:39;;;;;;;6.80;3.00;;;14.80;99.90;;;;;;5096351;28;20477;-74
2022/10/11 16:45:08;;;;;;;8.07;2.90;;;14.70;99.90;;;;;;5099164;28;20544;-73
2022/10/11 16:47:35;;;;;;;7.47;2.50;;;14.60;99.90;;;;;;5097689;28;20457;-73
2022/10/11 16:50:02;;;;;;;14.67;5.37;;;14.60;99.90;;;;;;5097201;28;20466;-74
2022/10/11 16:52:29;;;;;;;10.40;4.57;;;14.50;99.90;;;;;;5098031;28;20500;-74
2022/10/11 16:54:55;;;;;;;10.77;4.70;;;14.40;99.90;;;;;;5100125;28;20481;-73
2022/10/11 16:57:22;;;;;;;7.17;5.00;;;14.40;99.90;;;;;;5100252;28;20449;-73
2022/10/11 16:59:49;;;;;;;11.93;4.73;;;14.30;99.90;;;;;;5100530;28;20476;-73
2022/10/11 17:02:20;;;;;;;6.80;4.10;;;14.20;99.90;;;;;;5101271;28;20486;-74
2022/10/11 17:04:50;;;;;;;11.07;4.77;;;14.20;99.90;;;;;;5099948;28;20964;-73
2022/10/11 17:07:17;;;;;;;7.63;4.13;;;14.10;99.90;;;;;;5097634;28;20453;-69
2022/10/11 17:09:47;;;;;;;11.33;5.33;;;14.10;99.90;;;;;;5096800;28;20453;-69
2022/10/11 17:12:16;;;;;;;9.23;4.90;;;14.00;99.90;;;;;;5101382;28;20461;-69
2022/10/11 17:14:43;;;;;;;14.03;6.03;;;14.00;99.90;;;;;;5101469;28;20484;-69
2022/10/11 17:17:11;;;;;;;10.60;5.53;;;13.90;99.90;;;;;;5101990;28;20552;-69
2022/10/11 17:19:40;;;;;;;9.90;6.30;;;13.90;99.90;;;;;;5101193;28;20553;-70
2022/10/11 17:22:07;;;;;;;12.47;5.80;;;13.80;99.90;;;;;;5100995;28;20807;-70
2022/10/11 17:24:35;;;;;;;12.00;6.37;;;13.80;99.90;;;;;;5100609;28;20826;-69
2022/10/11 17:27:01;;;;;;;14.33;7.60;;;13.80;99.90;;;;;;5101242;28;20485;-69
2022/10/11 17:29:28;;;;;;;18.97;9.57;;;13.70;99.90;;;;;;5100862;28;20453;-69
2022/10/11 17:31:56;;;;;;;17.17;9.70;;;13.60;99.90;;;;;;5100799;28;20518;-69
2022/10/11 17:34:23;;;;;;;16.53;7.93;;;13.50;99.90;;;;;;5100880;28;20543;-69
2022/10/11 17:36:51;;;;;;;23.57;8.13;;;13.50;99.90;;;;;;5102412;28;20595;-70
2022/10/11 17:39:21;;;;;;;16.20;6.70;;;13.50;99.90;;;;;;5101806;28;20492;-70
2022/10/11 17:41:48;;;;;;;10.40;5.80;;;13.40;99.90;;;;;;5101742;28;20463;-70
2022/10/11 17:44:17;;;;;;;10.43;5.33;;;13.40;99.90;;;;;;5105186;28;20643;-69
2022/10/11 17:46:44;;;;;;;10.33;5.80;;;13.30;99.90;;;;;;5105535;28;20449;-69
2022/10/11 17:49:12;;;;;;;10.90;5.80;;;13.30;99.90;;;;;;5103967;28;20528;-69
2022/10/11 17:51:40;;;;;;;13.23;6.13;;;13.20;99.90;;;;;;5103840;28;20832;-69
2022/10/11 17:54:11;;;;;;;23.70;12.00;;;13.20;99.90;;;;;;5102688;28;20449;-69
2022/10/11 17:56:42;;;;;;;15.80;7.67;;;13.20;99.90;;;;;;5102733;28;20513;-69
2022/10/11 17:59:14;;;;;;;18.27;8.73;;;13.10;99.90;;;;;;5102525;28;20460;-69
2022/10/11 18:01:41;;;;;;;13.30;7.10;;;13.10;99.90;;;;;;5102081;28;20455;-70
2022/10/11 18:04:15;;;;;;;8.67;5.97;;;13.10;99.90;;;;;;5101309;28;20492;-70
2022/10/11 18:06:43;;;;;;;14.30;6.40;;;13.00;99.90;;;;;;5101495;28;20497;-68
2022/10/11 18:09:13;;;;;;;17.63;6.00;;;13.00;99.90;;;;;;5100387;28;20454;-71
2022/10/11 18:11:40;;;;;;;10.80;5.23;;;12.90;99.90;;;;;;5100682;28;20445;-70
2022/10/11 18:14:09;;;;;;;7.67;4.90;;;12.90;99.90;;;;;;5100717;28;20839;-70
2022/10/11 18:16:37;;;;;;;10.53;5.13;;;12.90;99.90;;;;;;5100261;28;20485;-70
2022/10/11 18:19:05;;;;;;;9.73;4.97;;;12.80;99.90;;;;;;5100088;28;20920;-70
2022/10/11 18:21:32;;;;;;;10.20;5.40;;;12.80;99.90;;;;;;5100352;28;20453;-69
2022/10/11 18:24:04;;;;;;;15.93;6.43;;;12.80;99.90;;;;;;5099986;28;20488;-70
2022/10/11 18:26:32;;;;;;;10.50;5.90;;;12.80;99.90;;;;;;5100944;28;20442;-70
2022/10/11 18:28:59;;;;;;;14.40;5.73;;;12.70;99.90;;;;;;5101130;28;20489;-71
2022/10/11 18:31:29;;;;;;;11.60;5.63;;;12.70;99.90;;;;;;5101079;28;20924;-70
2022/10/11 18:33:56;;;;;;;13.13;5.90;;;12.70;99.90;;;;;;5101022;28;20457;-69
2022/10/11 18:36:27;;;;;;;17.13;5.30;;;12.70;99.90;;;;;;5099198;28;20508;-69
2022/10/11 18:38:55;;;;;;;16.07;6.50;;;12.70;99.90;;;;;;5100560;28;20437;-70
2022/10/11 18:41:29;;;;;;;8.33;5.80;;;12.60;99.90;;;;;;5101381;28;20469;-70
2022/10/11 18:43:59;;;;;;;9.67;5.53;;;12.60;99.90;;;;;;5101849;28;20448;-71
2022/10/11 18:46:27;;;;;;;13.70;6.53;;;12.60;99.90;;;;;;5102110;28;20448;-70
2022/10/11 18:48:55;;;;;;;12.83;6.30;;;12.60;99.90;;;;;;5101661;28;20848;-70
2022/10/11 18:51:24;;;;;;;15.23;6.70;;;12.50;99.90;;;;;;5101432;28;20461;-70
2022/10/11 18:53:52;;;;;;;15.70;7.13;;;12.50;99.90;;;;;;5101129;28;20453;-70
2022/10/11 18:56:20;;;;;;;13.50;7.93;;;12.50;99.90;;;;;;5101300;28;20584;-70
2022/10/11 18:58:48;;;;;;;11.87;6.63;;;12.50;99.90;;;;;;5100796;28;20453;-71
2022/10/11 19:01:18;;;;;;;15.33;8.93;;;12.40;99.90;;;;;;5101457;28;20512;-71
2022/10/11 19:03:47;;;;;;;18.93;10.00;;;12.30;99.90;;;;;;5100940;28;20484;-71
2022/10/11 19:06:16;;;;;;;16.27;10.10;;;12.30;99.90;;;;;;5100884;28;20849;-70
2022/10/11 19:08:43;;;;;;;25.33;11.20;;;12.20;99.90;;;;;;5101355;28;20453;-70
2022/10/11 19:11:11;;;;;;;15.87;8.00;;;12.20;99.90;;;;;;5100664;28;20556;-71
2022/10/11 19:13:39;;;;;;;13.73;6.80;;;12.20;99.90;;;;;;5100955;28;20453;-70
2022/10/11 19:16:08;;;;;;;11.27;6.67;;;12.20;99.90;;;;;;5101318;28;20473;-71
2022/10/11 19:18:37;;;;;;;16.80;7.70;;;12.20;99.90;;;;;;5101166;28;20453;-71
2022/10/11 19:21:05;;;;;;;13.13;7.13;;;12.10;99.90;;;;;;5101456;28;20458;-70
2022/10/11 19:23:33;;;;;;;10.77;5.60;;;12.10;99.90;;;;;;5100741;28;20459;-70
2022/10/11 19:26:00;;;;;;;10.97;6.30;;;12.10;99.90;;;;;;5100272;28;20450;-70
2022/10/11 19:28:27;;;;;;;12.70;6.87;;;12.10;99.90;;;;;;5100151;28;20457;-70
2022/10/11 19:31:01;;;;;;;10.33;5.70;;;12.10;99.90;;;;;;5100791;28;20449;-70
2022/10/11 19:33:28;;;;;;;11.70;5.97;;;12.10;99.90;;;;;;5101080;28;20456;-70
2022/10/11 19:35:57;;;;;;;16.93;8.03;;;12.10;99.90;;;;;;5099811;28;20982;-69
2022/10/11 19:38:24;;;;;;;12.17;7.70;;;12.10;99.90;;;;;;5100769;28;20467;-70
2022/10/11 19:40:51;;;;;;;12.73;6.47;;;12.00;99.90;;;;;;5099703;28;20457;-70
2022/10/11 19:43:18;;;;;;;11.00;6.63;;;12.00;99.90;;;;;;5099537;28;20477;-69
2022/10/11 19:45:45;;;;;;;15.57;6.37;;;12.00;99.90;;;;;;5099460;28;20841;-70
2022/10/11 19:48:12;;;;;;;14.27;6.77;;;12.00;99.90;;;;;;5098800;28;20457;-70
2022/10/11 19:50:39;;;;;;;13.20;6.63;;;11.90;99.90;;;;;;5098522;28;20459;-70
2022/10/11 19:53:07;;;;;;;12.30;7.30;;;11.90;99.90;;;;;;5099972;28;20844;-70
2022/10/11 19:55:35;;;;;;;13.77;9.33;;;11.90;99.90;;;;;;5099402;28;21008;-69
2022/10/11 19:58:02;;;;;;;16.77;8.60;;;11.90;99.90;;;;;;5099101;28;20510;-70
2022/10/11 20:00:28;;;;;;;16.50;9.27;;;11.80;99.90;;;;;;5099629;28;20467;-69
2022/10/11 20:02:55;;;;;;;13.83;8.00;;;11.80;99.90;;;;;;5099652;28;20464;-70
2022/10/11 20:05:22;;;;;;;19.00;8.07;;;11.80;99.90;;;;;;5098995;28;20985;-70
2022/10/11 20:07:49;;;;;;;13.60;7.20;;;11.70;99.90;;;;;;5099672;28;20464;-69
2022/10/11 20:10:17;;;;;;;15.00;8.57;;;11.70;99.90;;;;;;5099294;28;20453;-69
2022/10/11 20:12:44;;;;;;;15.03;8.80;;;11.70;99.90;;;;;;5100056;28;20468;-70
2022/10/11 20:15:11;;;;;;;17.53;7.60;;;11.70;99.90;;;;;;5099003;28;20540;-70
2022/10/11 20:17:50;;;;;;;21.93;9.80;;;11.60;99.90;;;;;;5100246;28;20533;-70
2022/10/11 20:20:18;;;;;;;16.30;9.57;;;11.60;99.90;;;;;;5098756;28;20441;-70
2022/10/11 20:22:45;;;;;;;15.83;7.80;;;11.60;99.90;;;;;;5099129;28;20467;-69
2022/10/11 20:25:12;;;;;;;13.50;7.10;;;11.60;99.90;;;;;;5099181;28;20863;-70
2022/10/11 20:27:42;;;;;;;15.43;8.10;;;11.50;99.90;;;;;;5099529;28;20624;-70
2022/10/11 20:30:11;;;;;;;13.67;6.83;;;11.50;99.90;;;;;;5099873;28;20526;-70
2022/10/11 20:32:38;;;;;;;12.33;7.43;;;11.50;99.90;;;;;;5099166;28;20464;-70
2022/10/11 20:35:05;;;;;;;12.10;7.87;;;11.50;99.90;;;;;;5098339;28;20457;-70
2022/10/11 20:37:34;;;;;;;17.80;8.37;;;11.40;99.90;;;;;;5098435;28;20454;-70
2022/10/11 20:40:01;;;;;;;16.83;8.17;;;11.40;99.90;;;;;;5098584;28;20457;-70
2022/10/11 20:42:28;;;;;;;10.17;7.87;;;11.40;99.90;;;;;;5098392;28;20490;-70
2022/10/11 20:44:57;;;;;;;14.67;6.97;;;11.40;99.90;;;;;;5098040;28;20488;-70
2022/10/11 20:47:24;;;;;;;11.60;7.37;;;11.40;99.90;;;;;;5097600;28;20453;-69
2022/10/11 20:49:51;;;;;;;11.90;7.13;;;11.40;99.90;;;;;;5098333;28;20457;-70
2022/10/11 20:52:18;;;;;;;11.90;6.40;;;11.40;99.90;;;;;;5097871;28;20461;-70
2022/10/11 20:54:45;;;;;;;12.50;7.00;;;11.40;99.90;;;;;;5097737;28;20500;-70
2022/10/11 20:57:12;;;;;;;10.67;6.73;;;11.40;99.90;;;;;;5097691;28;20481;-70
2022/10/11 20:59:39;;;;;;;14.73;7.10;;;11.40;99.90;;;;;;5097659;28;20495;-70
2022/10/11 21:02:07;;;;;;;15.77;7.90;;;11.40;99.90;;;;;;5098034;28;20510;-70
2022/10/11 21:04:34;;;;;;;15.33;7.07;;;11.30;99.90;;;;;;5098035;28;20544;-70
2022/10/11 21:07:00;;;;;;;10.50;6.23;;;11.30;99.90;;;;;;5097825;28;20496;-68
2022/10/11 21:09:27;;;;;;;14.30;7.20;;;11.30;99.90;;;;;;5098217;28;20590;-68
2022/10/11 21:11:54;;;;;;;10.77;7.40;;;11.30;99.90;;;;;;5098354;28;20940;-69
2022/10/11 21:14:21;;;;;;;16.43;10.57;;;11.30;99.90;;;;;;5098785;28;20544;-69
2022/10/11 21:16:48;;;;;;;14.20;8.70;;;11.30;99.90;;;;;;5098547;28;20477;-69
2022/10/11 21:19:16;;;;;;;14.67;8.27;;;11.30;99.90;;;;;;5098083;28;20947;-69
2022/10/11 21:21:45;;;;;;;18.77;9.63;;;11.30;99.90;;;;;;5098419;28;20463;-69
2022/10/11 21:24:12;;;;;;;14.67;8.17;;;11.20;99.90;;;;;;5098848;28;20495;-69
2022/10/11 21:26:38;;;;;;;16.13;10.03;;;11.20;99.90;;;;;;5099025;28;20445;-70
2022/10/11 21:29:07;;;;;;;16.50;7.93;;;11.20;99.90;;;;;;5099406;28;20485;-69
2022/10/11 21:31:34;;;;;;;14.30;7.23;;;11.20;99.90;;;;;;5099154;28;20453;-69
2022/10/11 21:34:01;;;;;;;14.23;8.10;;;11.10;99.90;;;;;;5099149;28;20460;-70
2022/10/11 21:36:30;;;;;;;13.03;7.40;;;11.10;99.90;;;;;;5098204;28;20987;-71
2022/10/11 21:38:57;;;;;;;9.70;6.30;;;11.10;99.90;;;;;;5098549;28;20537;-70
2022/10/11 21:41:27;;;;;;;13.07;7.17;;;11.10;99.90;;;;;;5097855;28;20895;-70
2022/10/11 21:43:54;;;;;;;10.93;6.53;;;11.00;99.90;;;;;;5098716;28;20464;-69
2022/10/11 21:46:24;;;;;;;15.13;6.67;;;11.00;99.90;;;;;;5099096;28;20477;-69
2022/10/11 21:48:51;;;;;;;14.77;6.73;;;11.00;99.90;;;;;;5098238;28;20917;-69
2022/10/11 21:51:23;;;;;;;12.90;6.20;;;10.90;99.90;;;;;;5097869;28;20471;-69
2022/10/11 21:53:52;;;;;;;12.57;6.60;;;10.90;99.90;;;;;;5098107;28;20513;-69
2022/10/11 21:56:19;;;;;;;10.47;6.40;;;10.90;99.90;;;;;;5097899;28;20477;-69
2022/10/11 21:58:47;;;;;;;14.63;6.60;;;10.80;99.90;;;;;;5100015;28;20463;-69
2022/10/11 22:01:14;;;;;;;13.00;6.40;;;10.80;99.90;;;;;;5102799;28;20483;-69
2022/10/11 22:03:41;;;;;;;11.37;6.83;;;10.80;99.90;;;;;;5103115;28;20457;-68
2022/10/11 22:06:08;;;;;;;14.23;7.63;;;10.80;99.90;;;;;;5101552;28;20463;-69
2022/10/11 22:08:36;;;;;;;18.13;6.63;;;10.70;99.90;;;;;;5101421;28;20453;-69
2022/10/11 22:11:04;;;;;;;11.30;6.40;;;10.70;99.90;;;;;;5101582;28;20543;-69
2022/10/11 22:13:32;;;;;;;13.53;7.10;;;10.70;99.90;;;;;;5102251;28;20454;-69
2022/10/11 22:16:03;;;;;;;18.10;7.50;;;10.70;99.90;;;;;;5101322;28;20479;-69
2022/10/11 22:18:29;;;;;;;10.10;6.23;;;10.60;99.90;;;;;;5101428;28;20448;-69
2022/10/11 22:21:02;;;;;;;16.57;7.07;;;10.60;99.90;;;;;;5101459;28;20552;-69
2022/10/11 22:23:29;;;;;;;11.70;6.63;;;10.60;99.90;;;;;;5102537;28;20433;-69
2022/10/11 22:25:56;;;;;;;12.17;6.70;;;10.60;99.90;;;;;;5102044;28;20452;-71
2022/10/11 22:28:24;;;;;;;11.87;6.63;;;10.50;99.90;;;;;;5102038;28;20765;-74
2022/10/11 22:30:51;;;;;;;14.23;7.10;;;10.50;99.90;;;;;;5100853;28;20560;-69
2022/10/11 22:33:17;;;;;;;18.63;6.93;;;10.50;99.90;;;;;;5101499;28;20473;-70
2022/10/11 22:35:44;;;;;;;11.80;6.77;;;10.50;99.90;;;;;;5102150;28;20545;-69
2022/10/11 22:38:11;;;;;;;12.70;6.60;;;10.50;99.90;;;;;;5102404;28;20449;-70
2022/10/11 22:40:40;;;;;;;14.67;7.43;;;10.50;99.90;;;;;;5101803;28;20754;-70
2022/10/11 22:43:06;;;;;;;15.97;7.37;;;10.40;99.90;;;;;;5102263;28;20453;-70
2022/10/11 22:45:34;;;;;;;11.37;6.83;;;10.40;99.90;;;;;;5102048;28;20454;-69
2022/10/11 22:48:01;;;;;;;23.03;10.47;;;10.40;99.90;;;;;;5102440;28;20453;-69
2022/10/11 22:50:28;;;;;;;14.93;8.40;;;10.40;99.90;;;;;;5102166;28;20463;-69
2022/10/11 22:52:55;;;;;;;15.63;8.87;;;10.40;99.90;;;;;;5102144;28;20484;-70
2022/10/11 22:55:22;;;;;;;16.87;8.90;;;10.30;99.90;;;;;;5102260;28;20496;-70
2022/10/11 22:57:49;;;;;;;13.57;7.57;;;10.30;99.90;;;;;;5101901;28;20555;-71
2022/10/11 23:00:16;;;;;;;18.53;8.97;;;10.30;99.90;;;;;;5101690;28;20457;-70
2022/10/11 23:02:44;;;;;;;16.60;7.80;;;10.30;99.90;;;;;;5100217;28;20456;-70
2022/10/11 23:05:11;;;;;;;13.60;8.03;;;10.30;99.90;;;;;;5101183;28;20478;-70
2022/10/11 23:07:39;;;;;;;14.47;8.10;;;10.20;99.90;;;;;;5101794;28;20829;-70
2022/10/11 23:10:06;;;;;;;14.00;8.27;;;10.20;99.90;;;;;;5101297;28;20467;-69
2022/10/11 23:12:33;;;;;;;12.47;7.70;;;10.20;99.90;;;;;;5101458;28;20544;-70
2022/10/11 23:15:00;;;;;;;15.07;7.93;;;10.20;99.90;;;;;;5101803;28;20539;-69
2022/10/11 23:17:27;;;;;;;14.03;7.50;;;10.10;99.90;;;;;;5101216;28;20484;-70
2022/10/11 23:19:55;;;;;;;14.27;7.60;;;10.10;99.90;;;;;;5101536;28;20543;-68
2022/10/11 23:22:22;;;;;;;14.30;7.50;;;10.10;99.90;;;;;;5100512;28;20480;-69
2022/10/11 23:24:49;;;;;;;16.10;7.47;;;10.10;99.90;;;;;;5099874;28;20489;-69
2022/10/11 23:27:16;;;;;;;16.43;8.00;;;10.10;99.90;;;;;;5099702;28;20540;-70
2022/10/11 23:29:42;;;;;;;12.20;7.50;;;10.00;99.90;;;;;;5099829;28;20513;-70
2022/10/11 23:32:10;;;;;;;13.43;7.33;;;10.00;99.90;;;;;;5099296;28;20453;-70
2022/10/11 23:34:37;;;;;;;14.87;7.50;;;10.00;99.90;;;;;;5100745;28;20457;-69
2022/10/11 23:37:05;;;;;;;9.47;7.47;;;9.90;99.90;;;;;;5100073;28;20513;-70
2022/10/11 23:39:32;;;;;;;18.00;7.60;;;9.90;99.90;;;;;;5099384;28;20496;-69
2022/10/11 23:41:59;;;;;;;12.53;7.40;;;9.90;99.90;;;;;;5099127;28;20837;-69
2022/10/11 23:44:26;;;;;;;22.53;7.57;;;9.90;99.90;;;;;;5099238;28;20453;-70
2022/10/11 23:46:53;;;;;;;13.47;7.33;;;9.90;99.90;;;;;;5098677;28;20549;-70
2022/10/11 23:49:19;;;;;;;12.50;7.70;;;9.90;99.90;;;;;;5098903;28;20485;-69
2022/10/11 23:51:46;;;;;;;12.17;6.80;;;9.90;99.90;;;;;;5099501;28;20463;-70
2022/10/11 23:54:15;;;;;;;16.80;7.00;;;9.90;99.90;;;;;;5099104;28;20457;-69
2022/10/11 23:56:41;;;;;;;19.10;6.97;;;9.90;99.90;;;;;;5099161;28;20568;-69
2022/10/11 23:59:08;;;;;;;14.87;7.00;;;9.90;99.90;;;;;;5099500;28;20915;-70
